Time;durP1;ratioP1;P1;durP2;ratioP2;P2;SDS_P1;SDS_P2;PMS_P1;PMS_P2;Temp;Humidity;BMP_temperature;BMP_pressure;BME280_temperature;BME280_humidity;BME280_pressure;Samples;Min_cycle;Max_cycle;Signal;HPM_P1;HPM_P2
2022/04/03 00:00:38;;;;;;;21.60;9.13;;;;;;;;;;5041451;28;20073;-84
2022/04/03 00:03:06;;;;;;;24.10;9.50;;;;;;;;;;5034243;28;20132;-83
2022/04/03 00:05:37;;;;;;;19.23;7.72;;;;;;;;;;4997258;28;20454;-83
2022/04/03 00:08:05;;;;;;;21.25;7.15;;;;;;;;;;5045000;28;20158;-83
2022/04/03 00:10:33;;;;;;;19.85;8.32;;;;;;;;;;5026292;28;20285;-82
2022/04/03 00:13:01;;;;;;;17.67;7.70;;;;;;;;;;5043296;28;20058;-82
2022/04/03 00:15:28;;;;;;;16.50;7.65;;;;;;;;;;5044388;28;20061;-83
2022/04/03 00:17:56;;;;;;;20.15;8.18;;;;;;;;;;5043521;28;20056;-82
2022/04/03 00:20:23;;;;;;;20.40;7.97;;;;;;;;;;5045021;28;20059;-81
2022/04/03 00:22:52;;;;;;;19.20;7.05;;;;;;;;;;5045488;28;20085;-82
2022/04/03 00:25:20;;;;;;;17.83;6.70;;;;;;;;;;5021038;28;20493;-82
2022/04/03 00:27:47;;;;;;;27.15;6.65;;;;;;;;;;5000960;28;20103;-74
2022/04/03 00:30:16;;;;;;;18.90;8.02;;;;;;;;;;5024009;28;20175;-73
2022/04/03 00:32:43;;;;;;;17.17;6.43;;;;;;;;;;5007085;28;20084;-73
2022/04/03 00:35:10;;;;;;;16.92;7.18;;;;;;;;;;5023884;28;20055;-74
2022/04/03 00:37:37;;;;;;;15.75;7.07;;;;;;;;;;5020764;28;20898;-73
2022/04/03 00:40:05;;;;;;;16.42;7.00;;;;;;;;;;5018468;28;20063;-74
2022/04/03 00:42:35;;;;;;;22.60;7.28;;;;;;;;;;5020102;28;20136;-74
2022/04/03 00:45:04;;;;;;;17.52;6.55;;;;;;;;;;5006238;28;20473;-82
2022/04/03 00:47:31;;;;;;;21.25;6.78;;;;;;;;;;5032783;28;20087;-82
2022/04/03 00:49:59;;;;;;;22.27;6.78;;;;;;;;;;5029020;28;20135;-82
2022/04/03 00:52:26;;;;;;;16.52;6.05;;;;;;;;;;5010042;28;20076;-82
2022/04/03 00:54:53;;;;;;;16.58;6.47;;;;;;;;;;5028586;28;20063;-82
2022/04/03 00:57:22;;;;;;;21.27;7.32;;;;;;;;;;5014351;28;20060;-82
2022/04/03 00:59:50;;;;;;;18.90;6.13;;;;;;;;;;5026652;28;20076;-82
2022/04/03 01:02:17;;;;;;;17.17;5.82;;;;;;;;;;5031305;28;20091;-82
2022/04/03 01:04:44;;;;;;;15.02;6.38;;;;;;;;;;5028128;28;20077;-82
2022/04/03 01:07:17;;;;;;;15.70;5.78;;;;;;;;;;5028211;28;20045;-74
2022/04/03 01:09:59;;;;;;;21.15;6.35;;;;;;;;;;5001363;28;20666;-74
2022/04/03 01:12:26;;;;;;;12.88;6.00;;;;;;;;;;5021474;28;20574;-74
2022/04/03 01:15:20;;;;;;;14.90;5.75;;;;;;;;;;5021390;28;20438;-74
2022/04/03 01:17:47;;;;;;;16.42;5.78;;;;;;;;;;5014893;28;20123;-73
2022/04/03 01:20:14;;;;;;;23.35;6.22;;;;;;;;;;5024279;28;20085;-81
2022/04/03 01:22:42;;;;;;;12.02;5.28;;;;;;;;;;5035140;28;20141;-82
2022/04/03 01:25:14;;;;;;;14.73;5.75;;;;;;;;;;5034243;28;20075;-81
2022/04/03 01:27:41;;;;;;;20.35;6.10;;;;;;;;;;5014263;28;20685;-82
2022/04/03 01:30:12;;;;;;;14.05;5.63;;;;;;;;;;5033975;28;20751;-82
2022/04/03 01:32:40;;;;;;;13.85;5.93;;;;;;;;;;5036182;28;20075;-81
2022/04/03 01:35:07;;;;;;;12.32;5.28;;;;;;;;;;5031177;28;20106;-81
2022/04/03 01:37:35;;;;;;;15.13;5.55;;;;;;;;;;5034030;28;20112;-81
2022/04/03 01:40:04;;;;;;;14.25;5.47;;;;;;;;;;5036974;28;20063;-82
2022/04/03 01:42:31;;;;;;;11.95;5.10;;;;;;;;;;5044327;28;20110;-82
2022/04/03 01:44:59;;;;;;;10.85;5.20;;;;;;;;;;5018669;28;21298;-73
2022/04/03 01:47:26;;;;;;;13.68;5.78;;;;;;;;;;5020286;28;20049;-74
2022/04/03 01:49:53;;;;;;;11.65;5.43;;;;;;;;;;5023591;28;20159;-74
2022/04/03 01:52:20;;;;;;;11.13;4.90;;;;;;;;;;5006031;28;20768;-74
2022/04/03 01:54:48;;;;;;;10.05;4.65;;;;;;;;;;5006363;28;20393;-73
2022/04/03 01:57:15;;;;;;;13.25;5.03;;;;;;;;;;5022062;28;20132;-74
2022/04/03 01:59:42;;;;;;;13.80;5.40;;;;;;;;;;5023207;28;20045;-73
2022/04/03 02:02:11;;;;;;;11.95;5.32;;;;;;;;;;5004555;28;20128;-73
2022/04/03 02:04:39;;;;;;;10.13;4.75;;;;;;;;;;5004853;28;20739;-74
2022/04/03 02:07:06;;;;;;;11.07;4.72;;;;;;;;;;5021359;28;20136;-81
2022/04/03 02:09:34;;;;;;;10.85;4.30;;;;;;;;;;5028506;28;20677;-81
2022/04/03 02:12:03;;;;;;;11.73;4.07;;;;;;;;;;5037558;28;20092;-81
2022/04/03 02:14:30;;;;;;;9.93;4.68;;;;;;;;;;5018729;28;20081;-81
2022/04/03 02:16:58;;;;;;;8.95;4.63;;;;;;;;;;5033016;28;20076;-81
2022/04/03 02:19:25;;;;;;;11.20;5.00;;;;;;;;;;5018162;28;20099;-82
2022/04/03 02:21:52;;;;;;;14.98;6.07;;;;;;;;;;5024297;28;20466;-81
2022/04/03 02:24:20;;;;;;;13.32;5.10;;;;;;;;;;5035331;28;20514;-81
2022/04/03 02:26:47;;;;;;;9.32;4.28;;;;;;;;;;5034589;28;20100;-81
2022/04/03 02:29:14;;;;;;;11.15;4.45;;;;;;;;;;5044706;28;20651;-73
2022/04/03 02:31:41;;;;;;;14.43;5.03;;;;;;;;;;5005318;28;20144;-73
2022/04/03 02:34:08;;;;;;;12.43;5.45;;;;;;;;;;5020308;28;20046;-73
2022/04/03 02:36:36;;;;;;;10.45;4.53;;;;;;;;;;5033630;28;20045;-81
2022/04/03 02:39:03;;;;;;;13.55;4.13;;;;;;;;;;5019383;28;20065;-81
2022/04/03 02:41:30;;;;;;;9.43;4.10;;;;;;;;;;5035962;28;20136;-82
2022/04/03 02:43:58;;;;;;;14.10;4.65;;;;;;;;;;5021220;28;20726;-82
2022/04/03 02:46:25;;;;;;;9.80;3.97;;;;;;;;;;5041496;28;20072;-82
2022/04/03 02:48:58;;;;;;;9.15;4.20;;;;;;;;;;5030711;28;20041;-82
2022/04/03 02:51:25;;;;;;;7.85;3.80;;;;;;;;;;5034189;28;20621;-82
2022/04/03 02:53:53;;;;;;;8.07;4.18;;;;;;;;;;5029667;28;20133;-82
2022/04/03 02:56:20;;;;;;;8.48;3.83;;;;;;;;;;5034461;28;20570;-82
2022/04/03 02:58:48;;;;;;;12.60;4.65;;;;;;;;;;5032827;28;20105;-82
2022/04/03 03:01:15;;;;;;;11.27;4.30;;;;;;;;;;5029807;28;20154;-73
2022/04/03 03:03:42;;;;;;;10.23;4.28;;;;;;;;;;5030513;28;20068;-82
2022/04/03 03:06:10;;;;;;;9.95;4.00;;;;;;;;;;5033834;28;20077;-82
2022/04/03 03:08:37;;;;;;;8.75;3.97;;;;;;;;;;5035079;28;20049;-82
2022/04/03 03:11:04;;;;;;;11.35;4.18;;;;;;;;;;5033942;28;20096;-82
2022/04/03 03:13:32;;;;;;;8.52;3.88;;;;;;;;;;5036391;28;20718;-73
2022/04/03 03:15:59;;;;;;;10.52;3.78;;;;;;;;;;5005480;28;20160;-74
2022/04/03 03:18:26;;;;;;;18.83;5.13;;;;;;;;;;5008017;28;20467;-73
2022/04/03 03:20:54;;;;;;;7.93;4.13;;;;;;;;;;5023060;28;20046;-74
2022/04/03 03:23:21;;;;;;;7.15;3.75;;;;;;;;;;5019231;28;20504;-74
2022/04/03 03:25:48;;;;;;;7.85;4.35;;;;;;;;;;5008320;28;20136;-83
2022/04/03 03:28:15;;;;;;;13.13;4.15;;;;;;;;;;5025082;28;20045;-82
2022/04/03 03:30:43;;;;;;;11.65;4.47;;;;;;;;;;5035199;28;20044;-82
2022/04/03 03:33:10;;;;;;;12.00;4.45;;;;;;;;;;5022022;28;20073;-83
2022/04/03 03:35:37;;;;;;;17.35;4.30;;;;;;;;;;5024305;28;20073;-83
2022/04/03 03:38:05;;;;;;;12.95;4.95;;;;;;;;;;5032822;28;20144;-83
2022/04/03 03:40:32;;;;;;;15.07;4.53;;;;;;;;;;5038183;28;20087;-82
2022/04/03 03:43:00;;;;;;;13.05;4.63;;;;;;;;;;5015855;28;20072;-82
2022/04/03 03:45:27;;;;;;;14.10;4.50;;;;;;;;;;5037083;28;20611;-81
2022/04/03 03:47:54;;;;;;;14.60;4.25;;;;;;;;;;5034959;28;20051;-82
2022/04/03 03:50:22;;;;;;;11.50;4.55;;;;;;;;;;5039203;28;20136;-82
2022/04/03 03:52:49;;;;;;;11.30;4.80;;;;;;;;;;5033282;28;20168;-82
2022/04/03 03:55:16;;;;;;;11.73;4.47;;;;;;;;;;5019744;28;20080;-82
2022/04/03 03:57:47;;;;;;;18.77;5.20;;;;;;;;;;5035892;28;20091;-82
2022/04/03 04:00:15;;;;;;;9.48;4.53;;;;;;;;;;5036861;28;20976;-82
2022/04/03 04:02:42;;;;;;;7.00;3.88;;;;;;;;;;5037350;28;20053;-82
2022/04/03 04:05:09;;;;;;;13.73;5.25;;;;;;;;;;5019887;28;20416;-82
2022/04/03 04:07:43;;;;;;;11.98;4.50;;;;;;;;;;5041511;28;20052;-82
2022/04/03 04:10:14;;;;;;;12.77;4.60;;;;;;;;;;5038253;28;20136;-82
2022/04/03 04:12:42;;;;;;;11.35;4.20;;;;;;;;;;5017639;28;20390;-82
2022/04/03 04:15:09;;;;;;;9.02;4.22;;;;;;;;;;5037562;28;20073;-82
2022/04/03 04:17:38;;;;;;;7.47;4.00;;;;;;;;;;5033912;28;20072;-81
2022/04/03 04:20:06;;;;;;;10.00;4.32;;;;;;;;;;5019653;28;20053;-81
2022/04/03 04:22:33;;;;;;;12.02;4.63;;;;;;;;;;5037453;28;20104;-81
2022/04/03 04:25:01;;;;;;;10.52;3.72;;;;;;;;;;5033638;28;20677;-82
2022/04/03 04:27:28;;;;;;;12.50;3.90;;;;;;;;;;5031954;28;20128;-81
2022/04/03 04:29:55;;;;;;;9.55;3.95;;;;;;;;;;5038341;28;20073;-81
2022/04/03 04:32:24;;;;;;;12.65;4.18;;;;;;;;;;5036857;28;20248;-81
2022/04/03 04:34:51;;;;;;;9.75;4.43;;;;;;;;;;5022541;28;20084;-81
2022/04/03 04:37:19;;;;;;;13.60;4.03;;;;;;;;;;5029881;28;20072;-81
2022/04/03 04:39:46;;;;;;;7.07;3.63;;;;;;;;;;5036090;28;20098;-81
2022/04/03 04:42:14;;;;;;;7.03;3.47;;;;;;;;;;5016384;28;20144;-81
2022/04/03 04:44:42;;;;;;;10.30;4.30;;;;;;;;;;5036273;28;20080;-81
2022/04/03 04:47:09;;;;;;;10.95;4.10;;;;;;;;;;5013592;28;20053;-80
2022/04/03 04:49:37;;;;;;;8.32;3.90;;;;;;;;;;5032580;28;20049;-79
2022/04/03 04:52:05;;;;;;;10.05;3.90;;;;;;;;;;5031775;28;20164;-80
2022/04/03 04:54:32;;;;;;;11.57;4.32;;;;;;;;;;5011294;28;20053;-79
2022/04/03 04:56:59;;;;;;;11.60;4.90;;;;;;;;;;5029541;28;20140;-80
2022/04/03 04:59:32;;;;;;;9.32;4.05;;;;;;;;;;5032896;28;20045;-81
2022/04/03 05:01:59;;;;;;;10.93;4.47;;;;;;;;;;5023007;28;20128;-80
2022/04/03 05:04:27;;;;;;;12.85;4.25;;;;;;;;;;5017629;28;20119;-74
2022/04/03 05:06:55;;;;;;;11.32;4.20;;;;;;;;;;5024204;28;20139;-74
2022/04/03 05:09:22;;;;;;;12.82;4.50;;;;;;;;;;5023235;28;20722;-74
2022/04/03 05:11:50;;;;;;;8.02;3.97;;;;;;;;;;5024347;28;20593;-74
2022/04/03 05:14:17;;;;;;;13.82;4.45;;;;;;;;;;5022506;28;20057;-74
2022/04/03 05:16:45;;;;;;;9.20;4.40;;;;;;;;;;5011545;28;20061;-75
2022/04/03 05:19:13;;;;;;;11.98;4.85;;;;;;;;;;5006890;28;20068;-74
2022/04/03 05:21:41;;;;;;;9.20;4.68;;;;;;;;;;5029934;28;20053;-81
2022/04/03 05:24:09;;;;;;;12.68;4.63;;;;;;;;;;5025794;28;20095;-80
2022/04/03 05:26:36;;;;;;;10.13;4.38;;;;;;;;;;5028572;28;20064;-79
2022/04/03 05:29:09;;;;;;;12.75;4.85;;;;;;;;;;5023384;28;20045;-82
2022/04/03 05:31:37;;;;;;;11.40;5.70;;;;;;;;;;5030217;28;20129;-82
2022/04/03 05:34:04;;;;;;;6.90;4.22;;;;;;;;;;5029393;28;20312;-83
2022/04/03 05:36:31;;;;;;;26.98;5.88;;;;;;;;;;5008627;28;20116;-83
2022/04/03 05:38:58;;;;;;;13.95;5.63;;;;;;;;;;5026374;28;20041;-83
2022/04/03 05:41:26;;;;;;;19.20;6.05;;;;;;;;;;5025052;28;20054;-82
2022/04/03 05:43:54;;;;;;;14.68;6.53;;;;;;;;;;5020473;28;20080;-83
2022/04/03 05:46:22;;;;;;;11.77;5.63;;;;;;;;;;5019436;28;20128;-81
2022/04/03 05:48:49;;;;;;;12.02;5.70;;;;;;;;;;5034555;28;20144;-82
2022/04/03 05:51:16;;;;;;;14.00;5.13;;;;;;;;;;5043962;28;20080;-82
2022/04/03 05:53:44;;;;;;;9.35;5.10;;;;;;;;;;5037975;28;20081;-81
2022/04/03 05:56:11;;;;;;;11.27;4.47;;;;;;;;;;5033152;28;20104;-81
2022/04/03 05:58:38;;;;;;;11.35;4.93;;;;;;;;;;5017219;28;20049;-82
2022/04/03 06:01:06;;;;;;;8.90;4.80;;;;;;;;;;5027748;28;20635;-82
2022/04/03 06:03:33;;;;;;;12.05;4.03;;;;;;;;;;5015702;28;20129;-73
2022/04/03 06:06:01;;;;;;;9.73;4.13;;;;;;;;;;5006359;28;20072;-72
2022/04/03 06:08:28;;;;;;;10.85;3.90;;;;;;;;;;5009513;28;20045;-81
2022/04/03 06:10:55;;;;;;;12.32;4.47;;;;;;;;;;5028111;28;20098;-81
2022/04/03 06:13:24;;;;;;;7.53;3.58;;;;;;;;;;5028510;28;20084;-81
2022/04/03 06:15:51;;;;;;;5.78;3.00;;;;;;;;;;5029385;28;20077;-82
2022/04/03 06:18:18;;;;;;;11.32;3.45;;;;;;;;;;5029585;28;20168;-82
2022/04/03 06:20:47;;;;;;;8.52;3.58;;;;;;;;;;5024395;28;20148;-81
2022/04/03 06:23:14;;;;;;;6.25;3.17;;;;;;;;;;5013059;28;20474;-74
2022/04/03 06:25:42;;;;;;;5.05;3.05;;;;;;;;;;5008910;28;20132;-73
2022/04/03 06:28:10;;;;;;;8.00;3.35;;;;;;;;;;5014502;28;20076;-74
2022/04/03 06:30:37;;;;;;;8.15;2.83;;;;;;;;;;5006493;28;22466;-74
2022/04/03 06:33:05;;;;;;;8.90;3.03;;;;;;;;;;5006008;28;20089;-74
2022/04/03 06:35:32;;;;;;;4.72;2.95;;;;;;;;;;4998662;28;20569;-75
2022/04/03 06:38:05;;;;;;;11.30;3.63;;;;;;;;;;5009640;28;20049;-75
2022/04/03 06:40:33;;;;;;;7.07;3.25;;;;;;;;;;4998154;28;20045;-76
2022/04/03 06:43:01;;;;;;;21.67;3.13;;;;;;;;;;5021679;28;20157;-74
2022/04/03 06:45:28;;;;;;;5.32;2.92;;;;;;;;;;5021819;28;20161;-73
2022/04/03 06:48:00;;;;;;;6.45;2.95;;;;;;;;;;5004732;28;20171;-72
2022/04/03 06:50:27;;;;;;;8.35;3.20;;;;;;;;;;5022467;28;20725;-74
2022/04/03 06:52:54;;;;;;;8.65;4.00;;;;;;;;;;5017122;28;20088;-75
2022/04/03 06:55:22;;;;;;;6.38;3.50;;;;;;;;;;5003801;28;20668;-82
2022/04/03 06:57:49;;;;;;;5.45;3.25;;;;;;;;;;5004283;28;20052;-79
2022/04/03 07:00:16;;;;;;;8.20;3.13;;;;;;;;;;5023140;28;20560;-79
2022/04/03 07:02:43;;;;;;;4.82;3.00;;;;;;;;;;5023487;28;21250;-78
2022/04/03 07:05:11;;;;;;;5.85;3.17;;;;;;;;;;5022732;28;20816;-79
2022/04/03 07:07:38;;;;;;;4.57;3.05;;;;;;;;;;5021681;28;20045;-81
2022/04/03 07:10:05;;;;;;;12.30;3.47;;;;;;;;;;5006040;28;20583;-79
2022/04/03 07:12:33;;;;;;;8.27;3.55;;;;;;;;;;5022420;28;20124;-78
2022/04/03 07:15:00;;;;;;;5.18;3.13;;;;;;;;;;5028659;28;20503;-79
2022/04/03 07:17:27;;;;;;;4.35;2.95;;;;;;;;;;5013209;28;20053;-82
2022/04/03 07:19:57;;;;;;;6.20;2.78;;;;;;;;;;5012499;28;20056;-83
2022/04/03 07:22:25;;;;;;;6.10;2.80;;;;;;;;;;5015272;28;20136;-83
2022/04/03 07:24:52;;;;;;;6.65;2.92;;;;;;;;;;5024774;28;20132;-77
2022/04/03 07:27:19;;;;;;;4.40;2.90;;;;;;;;;;5024978;28;20056;-78
2022/04/03 07:29:46;;;;;;;3.97;2.97;;;;;;;;;;5011777;28;20073;-79
2022/04/03 07:32:23;;;;;;;3.72;2.80;;;;;;;;;;5013919;28;20045;-80
2022/04/03 07:34:50;;;;;;;6.00;3.35;;;;;;;;;;5009741;28;20080;-81
2022/04/03 07:37:18;;;;;;;6.47;2.67;;;;;;;;;;5038167;28;20142;-81
2022/04/03 07:39:45;;;;;;;5.85;3.22;;;;;;;;;;5035513;28;20046;-82
2022/04/03 07:42:14;;;;;;;5.05;3.22;;;;;;;;;;5035535;28;20068;-83
2022/04/03 07:44:42;;;;;;;6.63;3.35;;;;;;;;;;5015972;28;20069;-82
2022/04/03 07:47:11;;;;;;;7.93;3.08;;;;;;;;;;5036142;28;20120;-83
2022/04/03 07:49:38;;;;;;;3.30;2.60;;;;;;;;;;5014269;28;20515;-82
2022/04/03 07:52:05;;;;;;;4.32;2.90;;;;;;;;;;5030171;28;20141;-83
2022/04/03 07:54:33;;;;;;;4.32;2.60;;;;;;;;;;5039719;28;20080;-82
2022/04/03 07:57:00;;;;;;;4.38;2.60;;;;;;;;;;5022486;28;20148;-80
2022/04/03 07:59:27;;;;;;;9.45;2.88;;;;;;;;;;5027812;28;20593;-78
2022/04/03 08:01:55;;;;;;;10.50;3.30;;;;;;;;;;5024402;28;20117;-80
2022/04/03 08:04:22;;;;;;;4.00;2.60;;;;;;;;;;5008353;28;20056;-83
2022/04/03 08:06:50;;;;;;;5.47;2.45;;;;;;;;;;5027891;28;20135;-81
2022/04/03 08:09:17;;;;;;;4.68;2.80;;;;;;;;;;5024510;28;20140;-79
2022/04/03 08:11:44;;;;;;;3.75;2.30;;;;;;;;;;5032880;28;20049;-81
2022/04/03 08:14:11;;;;;;;3.33;2.63;;;;;;;;;;5033407;28;20077;-80
2022/04/03 08:16:39;;;;;;;3.80;2.15;;;;;;;;;;5032190;28;20459;-81
2022/04/03 08:19:06;;;;;;;5.68;2.63;;;;;;;;;;5016016;28;20088;-81
2022/04/03 08:21:33;;;;;;;4.15;2.53;;;;;;;;;;5033327;28;20092;-81
2022/04/03 08:24:02;;;;;;;5.13;2.53;;;;;;;;;;5031714;28;20084;-81
2022/04/03 08:26:32;;;;;;;4.13;2.67;;;;;;;;;;5020230;28;20052;-82
2022/04/03 08:28:59;;;;;;;6.20;2.53;;;;;;;;;;5022260;28;20111;-79
2022/04/03 08:31:27;;;;;;;13.38;2.30;;;;;;;;;;4998973;28;20525;-74
2022/04/03 08:33:57;;;;;;;5.93;2.95;;;;;;;;;;5017095;28;20053;-74
2022/04/03 08:36:25;;;;;;;3.85;2.10;;;;;;;;;;5018357;28;20569;-74
2022/04/03 08:38:52;;;;;;;4.53;1.90;;;;;;;;;;5000903;28;20129;-73
2022/04/03 08:41:19;;;;;;;4.47;1.90;;;;;;;;;;5001453;28;20141;-74
2022/04/03 08:43:47;;;;;;;4.13;2.22;;;;;;;;;;5017892;28;20073;-73
2022/04/03 08:46:17;;;;;;;4.05;1.65;;;;;;;;;;5022389;28;20056;-73
2022/04/03 08:48:46;;;;;;;4.28;1.90;;;;;;;;;;5024929;28;20049;-73
2022/04/03 08:51:14;;;;;;;6.70;1.50;;;;;;;;;;5026218;28;20053;-74
2022/04/03 08:53:44;;;;;;;3.80;1.70;;;;;;;;;;5007286;28;20611;-75
2022/04/03 08:56:11;;;;;;;6.70;1.60;;;;;;;;;;5019698;28;20144;-75
2022/04/03 08:58:38;;;;;;;2.25;1.77;;;;;;;;;;5017459;28;20129;-74
2022/04/03 09:01:06;;;;;;;4.68;1.90;;;;;;;;;;4996602;28;20049;-75
2022/04/03 09:03:34;;;;;;;7.45;1.70;;;;;;;;;;5018729;28;20062;-75
2022/04/03 09:06:16;;;;;;;4.43;1.90;;;;;;;;;;5001658;28;20115;-74
2022/04/03 09:08:43;;;;;;;8.55;2.03;;;;;;;;;;5010221;28;20486;-74
2022/04/03 09:11:11;;;;;;;3.78;1.45;;;;;;;;;;5010715;28;20056;-74
2022/04/03 09:13:39;;;;;;;5.28;1.75;;;;;;;;;;5012767;28;20107;-75
2022/04/03 09:16:07;;;;;;;5.55;1.85;;;;;;;;;;4995710;28;20135;-74
2022/04/03 09:18:44;;;;;;;5.03;1.80;;;;;;;;;;5013065;28;20057;-74
2022/04/03 09:21:16;;;;;;;4.88;1.63;;;;;;;;;;5012027;28;20135;-74
2022/04/03 09:23:58;;;;;;;4.82;1.67;;;;;;;;;;5008738;28;20045;-74
2022/04/03 09:26:26;;;;;;;10.45;2.10;;;;;;;;;;5025978;28;20080;-82
2022/04/03 09:29:29;;;;;;;6.20;1.88;;;;;;;;;;5023335;28;20457;-81
2022/04/03 09:32:01;;;;;;;2.95;1.48;;;;;;;;;;4928019;28;20185;-78
2022/04/03 09:34:29;;;;;;;4.57;1.83;;;;;;;;;;5014206;28;20057;-80
2022/04/03 09:36:58;;;;;;;2.92;1.90;;;;;;;;;;5027583;28;20061;-80
2022/04/03 09:39:31;;;;;;;5.13;1.70;;;;;;;;;;5029228;28;20053;-81
2022/04/03 09:42:00;;;;;;;2.42;1.42;;;;;;;;;;5024102;28;20143;-74
2022/04/03 09:44:28;;;;;;;12.65;3.35;;;;;;;;;;5003326;28;20053;-74
2022/04/03 09:47:15;;;;;;;4.93;1.80;;;;;;;;;;5010952;28;20938;-74
2022/04/03 09:49:44;;;;;;;6.43;1.70;;;;;;;;;;5011195;28;20103;-75
2022/04/03 09:52:35;;;;;;;4.82;1.65;;;;;;;;;;5014152;28;20644;-74
2022/04/03 09:55:16;;;;;;;5.55;2.20;;;;;;;;;;5008537;28;20780;-75
2022/04/03 09:57:47;;;;;;;7.88;1.98;;;;;;;;;;5014146;28;20077;-75
2022/04/03 10:00:41;;;;;;;6.18;2.22;;;;;;;;;;5012876;28;20068;-75
2022/04/03 10:03:10;;;;;;;4.82;1.58;;;;;;;;;;5007312;28;20053;-74
2022/04/03 10:05:37;;;;;;;3.22;1.73;;;;;;;;;;5012798;28;20600;-75
2022/04/03 10:08:05;;;;;;;5.57;1.88;;;;;;;;;;5008731;28;20589;-75
2022/04/03 10:10:34;;;;;;;4.18;1.90;;;;;;;;;;5008073;28;20184;-74
2022/04/03 10:13:03;;;;;;;7.63;2.38;;;;;;;;;;5006777;28;20147;-74
2022/04/03 10:15:30;;;;;;;6.32;2.10;;;;;;;;;;5006400;28;20049;-74
2022/04/03 10:17:58;;;;;;;5.70;2.10;;;;;;;;;;5008134;28;20077;-74
2022/04/03 10:20:26;;;;;;;6.80;1.83;;;;;;;;;;5008649;28;20510;-74
2022/04/03 10:22:56;;;;;;;4.47;1.58;;;;;;;;;;5016690;28;20064;-81
2022/04/03 10:25:27;;;;;;;10.35;1.90;;;;;;;;;;5012434;28;20137;-75
2022/04/03 10:27:56;;;;;;;4.32;2.00;;;;;;;;;;5012023;28;20145;-74
2022/04/03 10:30:33;;;;;;;11.73;1.98;;;;;;;;;;5021435;28;20073;-74
2022/04/03 10:33:01;;;;;;;3.78;1.58;;;;;;;;;;5016617;28;20183;-74
2022/04/03 10:35:28;;;;;;;3.28;1.85;;;;;;;;;;5013492;28;20137;-74
2022/04/03 10:38:05;;;;;;;2.85;1.80;;;;;;;;;;5022838;28;20080;-75
2022/04/03 10:40:34;;;;;;;8.77;2.15;;;;;;;;;;5005680;28;20049;-74
2022/04/03 10:43:06;;;;;;;5.53;2.13;;;;;;;;;;5029146;28;20087;-76
2022/04/03 10:45:33;;;;;;;5.28;1.70;;;;;;;;;;5006530;28;20543;-76
2022/04/03 10:48:20;;;;;;;6.15;2.92;;;;;;;;;;5012218;28;20693;-79
2022/04/03 10:51:06;;;;;;;5.40;1.88;;;;;;;;;;5028984;28;20778;-79
2022/04/03 10:53:35;;;;;;;10.55;2.50;;;;;;;;;;5026371;28;20145;-77
2022/04/03 10:56:07;;;;;;;6.70;2.00;;;;;;;;;;5002959;28;20160;-76
2022/04/03 10:58:39;;;;;;;7.53;2.50;;;;;;;;;;5022574;28;20050;-76
2022/04/03 11:01:06;;;;;;;5.32;2.67;;;;;;;;;;5026982;28;20144;-76
2022/04/03 11:03:34;;;;;;;7.47;2.47;;;;;;;;;;5007315;28;20065;-77
2022/04/03 11:06:21;;;;;;;10.50;3.60;;;;;;;;;;5023783;28;20135;-79
2022/04/03 11:08:59;;;;;;;7.05;2.15;;;;;;;;;;5016717;28;20132;-77
2022/04/03 11:11:35;;;;;;;8.73;2.35;;;;;;;;;;5003707;28;20056;-77
2022/04/03 11:14:02;;;;;;;5.68;2.08;;;;;;;;;;4998476;28;20140;-77
2022/04/03 11:16:30;;;;;;;4.53;2.05;;;;;;;;;;5020896;28;20116;-77
2022/04/03 11:19:04;;;;;;;2.60;1.80;;;;;;;;;;5024483;28;20118;-77
2022/04/03 11:21:33;;;;;;;5.05;1.55;;;;;;;;;;5024366;28;20045;-76
2022/04/03 11:24:11;;;;;;;7.18;1.58;;;;;;;;;;5025752;28;20525;-75
2022/04/03 11:26:39;;;;;;;4.80;1.85;;;;;;;;;;5020410;28;20071;-76
2022/04/03 11:29:09;;;;;;;5.38;1.85;;;;;;;;;;5028151;28;20109;-76
2022/04/03 11:31:38;;;;;;;5.18;1.60;;;;;;;;;;5024327;28;20053;-78
2022/04/03 11:34:08;;;;;;;6.18;1.55;;;;;;;;;;5021895;28;20053;-77
2022/04/03 11:36:36;;;;;;;7.38;1.98;;;;;;;;;;5021808;28;20048;-77
2022/04/03 11:39:05;;;;;;;3.78;1.50;;;;;;;;;;5025982;28;20540;-83
2022/04/03 11:41:35;;;;;;;6.53;2.35;;;;;;;;;;5032888;28;20729;-85
2022/04/03 11:44:09;;;;;;;4.65;1.40;;;;;;;;;;5032482;28;20049;-82
2022/04/03 11:46:44;;;;;;;7.30;1.45;;;;;;;;;;5014122;28;20157;-83
2022/04/03 11:49:13;;;;;;;5.57;1.55;;;;;;;;;;5030195;28;20076;-76
2022/04/03 11:51:41;;;;;;;3.92;2.00;;;;;;;;;;5015789;28;20123;-75
2022/04/03 11:54:09;;;;;;;4.30;1.95;;;;;;;;;;5008354;28;20149;-75
2022/04/03 11:56:37;;;;;;;7.95;1.88;;;;;;;;;;5025913;28;20042;-76
2022/04/03 11:59:12;;;;;;;3.17;1.33;;;;;;;;;;5026337;28;20049;-76
2022/04/03 12:01:42;;;;;;;3.08;1.70;;;;;;;;;;5024352;28;20793;-75
2022/04/03 12:04:12;;;;;;;7.13;1.85;;;;;;;;;;5015712;28;20581;-76
2022/04/03 12:06:42;;;;;;;4.55;1.45;;;;;;;;;;5010282;28;20045;-82
2022/04/03 12:09:13;;;;;;;2.05;1.17;;;;;;;;;;5027991;28;20053;-77
2022/04/03 12:11:42;;;;;;;22.70;3.15;;;;;;;;;;5018331;28;20049;-77
2022/04/03 12:14:09;;;;;;;8.32;1.80;;;;;;;;;;5011273;28;20137;-77
2022/04/03 12:16:38;;;;;;;4.50;1.25;;;;;;;;;;5011418;28;20139;-77
2022/04/03 12:19:06;;;;;;;4.88;1.10;;;;;;;;;;5015351;28;20132;-83
2022/04/03 12:21:36;;;;;;;3.47;1.08;;;;;;;;;;5014525;28;20092;-81
2022/04/03 12:24:05;;;;;;;7.07;3.33;;;;;;;;;;5020001;28;20133;-84
2022/04/03 12:26:38;;;;;;;4.10;1.40;;;;;;;;;;5016344;28;20050;-82
2022/04/03 12:29:07;;;;;;;3.08;1.10;;;;;;;;;;5020201;28;20180;-81
2022/04/03 12:31:35;;;;;;;2.30;0.80;;;;;;;;;;5018688;28;20505;-82
2022/04/03 12:34:05;;;;;;;4.95;1.20;;;;;;;;;;5018418;28;20480;-82
2022/04/03 12:36:43;;;;;;;3.72;1.08;;;;;;;;;;5020244;28;20140;-84
2022/04/03 12:39:30;;;;;;;3.85;1.73;;;;;;;;;;5019171;28;20102;-76
2022/04/03 12:42:08;;;;;;;4.72;1.35;;;;;;;;;;5021096;28;20143;-76
2022/04/03 12:44:46;;;;;;;4.30;1.45;;;;;;;;;;5023890;28;20107;-76
2022/04/03 12:47:14;;;;;;;3.53;1.20;;;;;;;;;;5021773;28;20045;-76
2022/04/03 12:49:45;;;;;;;4.50;1.35;;;;;;;;;;5005899;28;20748;-76
2022/04/03 12:52:18;;;;;;;8.60;2.88;;;;;;;;;;5023379;28;20049;-76
2022/04/03 12:54:46;;;;;;;2.42;0.90;;;;;;;;;;5009794;28;20176;-74
2022/04/03 13:00:07;;;;;;;9.43;2.70;;;;;;;;;;5016713;28;20133;-75
2022/04/03 13:02:39;;;;;;;2.47;0.80;;;;;;;;;;5016350;28;20049;-75
2022/04/03 13:05:12;;;;;;;2.35;0.70;;;;;;;;;;5028577;28;20049;-82
2022/04/03 13:07:39;;;;;;;1.15;0.40;;;;;;;;;;5030748;28;20046;-83
2022/04/03 13:10:07;;;;;;;10.02;0.93;;;;;;;;;;5035502;28;20136;-83
2022/04/03 13:12:34;;;;;;;4.18;0.63;;;;;;;;;;5035088;28;20056;-83
2022/04/03 13:15:02;;;;;;;1.35;0.57;;;;;;;;;;5024792;28;20041;-83
2022/04/03 13:17:29;;;;;;;2.15;0.82;;;;;;;;;;5028292;28;20053;-75
2022/04/03 13:19:56;;;;;;;5.65;0.70;;;;;;;;;;4999686;28;20057;-75
2022/04/03 13:22:24;;;;;;;7.85;2.40;;;;;;;;;;4999653;28;20110;-74
2022/04/03 13:24:51;;;;;;;1.20;0.45;;;;;;;;;;5017793;28;20165;-74
2022/04/03 13:27:18;;;;;;;6.00;0.90;;;;;;;;;;5016172;28;20053;-74
2022/04/03 13:29:45;;;;;;;1.58;0.50;;;;;;;;;;5021660;28;20056;-74
2022/04/03 13:32:13;;;;;;;3.70;0.73;;;;;;;;;;5026380;28;20148;-74
2022/04/03 13:34:40;;;;;;;2.78;1.25;;;;;;;;;;5018965;28;20077;-75
2022/04/03 13:37:07;;;;;;;4.45;0.80;;;;;;;;;;5020279;28;20171;-76
2022/04/03 13:39:36;;;;;;;2.45;0.80;;;;;;;;;;5025748;28;20092;-75
2022/04/03 13:42:08;;;;;;;2.03;0.52;;;;;;;;;;4994017;28;20057;-75
2022/04/03 13:44:35;;;;;;;4.75;0.68;;;;;;;;;;5008060;28;20053;-75
2022/04/03 13:47:02;;;;;;;1.23;0.57;;;;;;;;;;5026778;28;20050;-75
2022/04/03 13:49:30;;;;;;;2.55;0.77;;;;;;;;;;5008790;28;20442;-74
2022/04/03 13:51:57;;;;;;;3.78;0.82;;;;;;;;;;5007908;28;21378;-74
2022/04/03 13:54:24;;;;;;;3.45;0.82;;;;;;;;;;5025414;28;20050;-73
2022/04/03 13:56:51;;;;;;;4.13;1.15;;;;;;;;;;5025997;28;20852;-73
2022/04/03 13:59:18;;;;;;;6.53;0.95;;;;;;;;;;5025262;28;20091;-73
2022/04/03 14:01:47;;;;;;;2.25;0.90;;;;;;;;;;5013577;28;20102;-82
2022/04/03 14:04:19;;;;;;;17.08;1.23;;;;;;;;;;5009371;28;20513;-79
2022/04/03 14:06:46;;;;;;;4.38;1.00;;;;;;;;;;5037250;28;20131;-79
2022/04/03 14:09:14;;;;;;;3.53;1.10;;;;;;;;;;5024937;28;20050;-84
2022/04/03 14:11:42;;;;;;;3.15;0.88;;;;;;;;;;5032518;28;20041;-82
2022/04/03 14:14:09;;;;;;;7.93;1.35;;;;;;;;;;5039771;28;20085;-82
2022/04/03 14:16:38;;;;;;;4.00;1.10;;;;;;;;;;5025248;28;20106;-80
2022/04/03 14:19:06;;;;;;;4.32;0.85;;;;;;;;;;5015239;28;20061;-79
2022/04/03 14:21:37;;;;;;;2.53;1.10;;;;;;;;;;5023731;28;20053;-73
2022/04/03 14:24:04;;;;;;;5.20;1.17;;;;;;;;;;5006769;28;20153;-73
2022/04/03 14:26:32;;;;;;;6.43;1.05;;;;;;;;;;5025624;28;20053;-73
2022/04/03 14:28:59;;;;;;;2.55;0.75;;;;;;;;;;5025000;28;20068;-75
2022/04/03 14:31:27;;;;;;;2.63;1.00;;;;;;;;;;5009176;28;20112;-75
2022/04/03 14:33:54;;;;;;;3.53;1.08;;;;;;;;;;5036096;28;20411;-80
2022/04/03 14:36:21;;;;;;;5.43;1.27;;;;;;;;;;5022489;28;20550;-79
2022/04/03 14:38:53;;;;;;;1.60;0.82;;;;;;;;;;5034451;28;20651;-79
2022/04/03 14:41:21;;;;;;;3.97;0.95;;;;;;;;;;5022690;28;20053;-79
2022/04/03 14:43:48;;;;;;;2.42;0.77;;;;;;;;;;5035395;28;20068;-83
2022/04/03 14:46:15;;;;;;;1.67;0.82;;;;;;;;;;5038639;28;20076;-86
2022/04/03 14:48:43;;;;;;;3.97;1.02;;;;;;;;;;5040116;28;20049;-81
2022/04/03 14:51:11;;;;;;;3.25;1.08;;;;;;;;;;5036104;28;20072;-81